<?xml version="1.0" encoding="UTF-8" standalone="no" ?>
<gpx xmlns="http://www.topografix.com/GPX/1/1" xmlns:xsi="http://www.w3.org/2001/XMLSchema-instance" xsi:schemaLocation="http://www.topografix.com/GPX/1/1 http://www.topografix.com/GPX/1/1/gpx.xsd" version="1.1" creator="VisuGPX - https://www.visugpx.com">
  <metadata>
    <name>la roche posay</name>
  </metadata>
  <trk>
    <name><![CDATA[6573866-la roche posay]]></name>
    <trkseg>
      <trkpt lat="46.78599" lon="0.81342">
        <ele>75</ele>
        <time>2021-02-14T11:10:38Z</time>
      </trkpt>
      <trkpt lat="46.78929" lon="0.81823">
        <ele>60</ele>
        <time>2021-02-14T11:12:01Z</time>
      </trkpt>
      <trkpt lat="46.78882" lon="0.82286">
        <ele>58</ele>
        <time>2021-02-14T11:12:58Z</time>
      </trkpt>
      <trkpt lat="46.78987" lon="0.82595">
        <ele>60</ele>
        <time>2021-02-14T11:13:40Z</time>
      </trkpt>
      <trkpt lat="46.78952" lon="0.83694">
        <ele>59</ele>
        <time>2021-02-14T11:15:54Z</time>
      </trkpt>
      <trkpt lat="46.79058" lon="0.84226">
        <ele>59</ele>
        <time>2021-02-14T11:17:02Z</time>
      </trkpt>
      <trkpt lat="46.78799" lon="0.86131">
        <ele>69</ele>
        <time>2021-02-14T11:20:58Z</time>
      </trkpt>
      <trkpt lat="46.78552" lon="0.87024">
        <ele>73</ele>
        <time>2021-02-14T11:22:55Z</time>
      </trkpt>
      <trkpt lat="46.78235" lon="0.86973">
        <ele>61</ele>
        <time>2021-02-14T11:23:52Z</time>
      </trkpt>
      <trkpt lat="46.78165" lon="0.86492">
        <ele>62</ele>
        <time>2021-02-14T11:24:52Z</time>
      </trkpt>
      <trkpt lat="46.77929" lon="0.86355">
        <ele>62</ele>
        <time>2021-02-14T11:25:37Z</time>
      </trkpt>
      <trkpt lat="46.77248" lon="0.87831">
        <ele>80</ele>
        <time>2021-02-14T11:29:14Z</time>
      </trkpt>
      <trkpt lat="46.77037" lon="0.8814">
        <ele>93</ele>
        <time>2021-02-14T11:30:07Z</time>
      </trkpt>
      <trkpt lat="46.76755" lon="0.88672">
        <ele>80</ele>
        <time>2021-02-14T11:31:29Z</time>
      </trkpt>
      <trkpt lat="46.76743" lon="0.89256">
        <ele>77</ele>
        <time>2021-02-14T11:32:41Z</time>
      </trkpt>
      <trkpt lat="46.76214" lon="0.89462">
        <ele>81</ele>
        <time>2021-02-14T11:34:18Z</time>
      </trkpt>
      <trkpt lat="46.75802" lon="0.90389">
        <ele>80</ele>
        <time>2021-02-14T11:36:33Z</time>
      </trkpt>
      <trkpt lat="46.75814" lon="0.90406">
        <ele>80</ele>
        <time>2021-02-14T11:36:36Z</time>
      </trkpt>
      <trkpt lat="46.75788" lon="0.90989">
        <ele>77</ele>
        <time>2021-02-14T11:37:47Z</time>
      </trkpt>
      <trkpt lat="46.75576" lon="0.91075">
        <ele>80</ele>
        <time>2021-02-14T11:38:26Z</time>
      </trkpt>
      <trkpt lat="46.752" lon="0.91968">
        <ele>77</ele>
        <time>2021-02-14T11:40:34Z</time>
      </trkpt>
      <trkpt lat="46.74642" lon="0.92569">
        <ele>85</ele>
        <time>2021-02-14T11:42:37Z</time>
      </trkpt>
      <trkpt lat="46.74536" lon="0.92809">
        <ele>82</ele>
        <time>2021-02-14T11:43:12Z</time>
      </trkpt>
      <trkpt lat="46.74609" lon="0.92933">
        <ele>81</ele>
        <time>2021-02-14T11:43:32Z</time>
      </trkpt>
      <trkpt lat="46.74185" lon="0.93715">
        <ele>77</ele>
        <time>2021-02-14T11:45:33Z</time>
      </trkpt>
      <trkpt lat="46.73162" lon="0.9423">
        <ele>79</ele>
        <time>2021-02-14T11:48:46Z</time>
      </trkpt>
      <trkpt lat="46.72744" lon="0.94195">
        <ele>79</ele>
        <time>2021-02-14T11:50:01Z</time>
      </trkpt>
      <trkpt lat="46.72014" lon="0.94508">
        <ele>83</ele>
        <time>2021-02-14T11:52:16Z</time>
      </trkpt>
      <trkpt lat="46.71379" lon="0.94611">
        <ele>91</ele>
        <time>2021-02-14T11:54:10Z</time>
      </trkpt>
      <trkpt lat="46.70792" lon="0.94972">
        <ele>87</ele>
        <time>2021-02-14T11:56:03Z</time>
      </trkpt>
      <trkpt lat="46.69862" lon="0.9571">
        <ele>78</ele>
        <time>2021-02-14T11:59:11Z</time>
      </trkpt>
      <trkpt lat="46.69297" lon="0.95075">
        <ele>102</ele>
        <time>2021-02-14T12:01:18Z</time>
      </trkpt>
      <trkpt lat="46.68013" lon="0.94852">
        <ele>127</ele>
        <time>2021-02-14T12:05:08Z</time>
      </trkpt>
      <trkpt lat="46.67654" lon="0.94766">
        <ele>121</ele>
        <time>2021-02-14T12:06:13Z</time>
      </trkpt>
      <trkpt lat="46.67136" lon="0.95247">
        <ele>123</ele>
        <time>2021-02-14T12:08:02Z</time>
      </trkpt>
      <trkpt lat="46.66629" lon="0.95556">
        <ele>118</ele>
        <time>2021-02-14T12:09:40Z</time>
      </trkpt>
      <trkpt lat="46.65239" lon="0.94817">
        <ele>124</ele>
        <time>2021-02-14T12:14:03Z</time>
      </trkpt>
      <trkpt lat="46.64308" lon="0.94337">
        <ele>108</ele>
        <time>2021-02-14T12:16:59Z</time>
      </trkpt>
      <trkpt lat="46.63766" lon="0.9341">
        <ele>105</ele>
        <time>2021-02-14T12:19:28Z</time>
      </trkpt>
      <trkpt lat="46.63235" lon="0.92534">
        <ele>84</ele>
        <time>2021-02-14T12:21:51Z</time>
      </trkpt>
      <trkpt lat="46.62976" lon="0.92397">
        <ele>84</ele>
        <time>2021-02-14T12:22:40Z</time>
      </trkpt>
      <trkpt lat="46.63106" lon="0.92122">
        <ele>87</ele>
        <time>2021-02-14T12:23:20Z</time>
      </trkpt>
      <trkpt lat="46.62469" lon="0.9111">
        <ele>96</ele>
        <time>2021-02-14T12:26:08Z</time>
      </trkpt>
      <trkpt lat="46.62257" lon="0.89582">
        <ele>108</ele>
        <time>2021-02-14T12:29:19Z</time>
      </trkpt>
      <trkpt lat="46.61679" lon="0.89221">
        <ele>104</ele>
        <time>2021-02-14T12:31:11Z</time>
      </trkpt>
      <trkpt lat="46.60771" lon="0.8723">
        <ele>98</ele>
        <time>2021-02-14T12:36:03Z</time>
      </trkpt>
      <trkpt lat="46.60323" lon="0.8723">
        <ele>88</ele>
        <time>2021-02-14T12:37:22Z</time>
      </trkpt>
      <trkpt lat="46.6024" lon="0.86629">
        <ele>80</ele>
        <time>2021-02-14T12:38:37Z</time>
      </trkpt>
      <trkpt lat="46.61373" lon="0.86046">
        <ele>80</ele>
        <time>2021-02-14T12:42:11Z</time>
      </trkpt>
      <trkpt lat="46.61986" lon="0.86217">
        <ele>87</ele>
        <time>2021-02-14T12:44:02Z</time>
      </trkpt>
      <trkpt lat="46.6333" lon="0.85462">
        <ele>81</ele>
        <time>2021-02-14T12:48:19Z</time>
      </trkpt>
      <trkpt lat="46.64732" lon="0.8426">
        <ele>84</ele>
        <time>2021-02-14T12:53:08Z</time>
      </trkpt>
      <trkpt lat="46.65668" lon="0.83711">
        <ele>76</ele>
        <time>2021-02-14T12:56:08Z</time>
      </trkpt>
      <trkpt lat="46.66363" lon="0.84157">
        <ele>110</ele>
        <time>2021-02-14T12:58:23Z</time>
      </trkpt>
      <trkpt lat="46.6707" lon="0.83883">
        <ele>96</ele>
        <time>2021-02-14T13:00:33Z</time>
      </trkpt>
      <trkpt lat="46.67953" lon="0.8438">
        <ele>80</ele>
        <time>2021-02-14T13:03:21Z</time>
      </trkpt>
      <trkpt lat="46.68071" lon="0.83831">
        <ele>70</ele>
        <time>2021-02-14T13:04:31Z</time>
      </trkpt>
      <trkpt lat="46.67965" lon="0.83024">
        <ele>97</ele>
        <time>2021-02-14T13:06:12Z</time>
      </trkpt>
      <trkpt lat="46.68483" lon="0.82458">
        <ele>137</ele>
        <time>2021-02-14T13:08:07Z</time>
      </trkpt>
      <trkpt lat="46.68566" lon="0.816">
        <ele>134</ele>
        <time>2021-02-14T13:09:53Z</time>
      </trkpt>
      <trkpt lat="46.69272" lon="0.80261">
        <ele>137</ele>
        <time>2021-02-14T13:13:19Z</time>
      </trkpt>
      <trkpt lat="46.7085" lon="0.79025">
        <ele>138</ele>
        <time>2021-02-14T13:18:38Z</time>
      </trkpt>
      <trkpt lat="46.72286" lon="0.77033">
        <ele>132</ele>
        <time>2021-02-14T13:24:30Z</time>
      </trkpt>
      <trkpt lat="46.72618" lon="0.77192">
        <ele>136</ele>
        <time>2021-02-14T13:25:32Z</time>
      </trkpt>
      <trkpt lat="46.73642" lon="0.76789">
        <ele>134</ele>
        <time>2021-02-14T13:28:41Z</time>
      </trkpt>
      <trkpt lat="46.73789" lon="0.76892">
        <ele>136</ele>
        <time>2021-02-14T13:29:10Z</time>
      </trkpt>
      <trkpt lat="46.74053" lon="0.7696">
        <ele>136</ele>
        <time>2021-02-14T13:29:58Z</time>
      </trkpt>
      <trkpt lat="46.74165" lon="0.77844">
        <ele>134</ele>
        <time>2021-02-14T13:31:47Z</time>
      </trkpt>
      <trkpt lat="46.74306" lon="0.78282">
        <ele>134</ele>
        <time>2021-02-14T13:32:46Z</time>
      </trkpt>
      <trkpt lat="46.7433" lon="0.78694">
        <ele>134</ele>
        <time>2021-02-14T13:33:37Z</time>
      </trkpt>
      <trkpt lat="46.74565" lon="0.79647">
        <ele>124</ele>
        <time>2021-02-14T13:35:40Z</time>
      </trkpt>
      <trkpt lat="46.74777" lon="0.79793">
        <ele>133</ele>
        <time>2021-02-14T13:36:22Z</time>
      </trkpt>
      <trkpt lat="46.75341" lon="0.79733">
        <ele>135</ele>
        <time>2021-02-14T13:38:03Z</time>
      </trkpt>
      <trkpt lat="46.76764" lon="0.81612">
        <ele>133</ele>
        <time>2021-02-14T13:43:44Z</time>
      </trkpt>
      <trkpt lat="46.77676" lon="0.82127">
        <ele>84</ele>
        <time>2021-02-14T13:46:38Z</time>
      </trkpt>
      <trkpt lat="46.7777" lon="0.82265">
        <ele>77</ele>
        <time>2021-02-14T13:47:02Z</time>
      </trkpt>
      <trkpt lat="46.77987" lon="0.82153">
        <ele>78</ele>
        <time>2021-02-14T13:47:43Z</time>
      </trkpt>
      <trkpt lat="46.78393" lon="0.81827">
        <ele>83</ele>
        <time>2021-02-14T13:49:05Z</time>
      </trkpt>
      <trkpt lat="46.78606" lon="0.81469">
        <ele>77</ele>
        <time>2021-02-14T13:50:03Z</time>
      </trkpt>
    </trkseg>
  </trk>
</gpx>